Observations for VALLEY RAF, United Kingdom (EGOV)

EGOV 201650Z AUTO 34005KT 9999 NCD 14/07 Q1021  
EGOV 201550Z AUTO 32009KT 9999 NCD 16/05 Q1021  
EGOV 201450Z AUTO 32009KT 9999 NCD 16/07 Q1021  
EGOV 201350Z AUTO 31010KT 9999 NCD 16/07 Q1021  
EGOV 201250Z 32012KT 9999 FEW013 15/06 Q1020 BLU NOSIG  
EGOV 201150Z 32015KT 9999 FEW013 BKN025 14/08 Q1020 BLU NOSIG   
EGOV 201050Z AUTO 33013KT 5000 HZ BKN005/// BKN012/// 13/12 Q1019   
EGOV 201022Z 34015KT 7000 -DZ FEW005 SCT007 BKN020 13/11 Q1018 GRN BECMG 9999 NSW FEW007 BLU
EGOV 201010Z 34018KT 6000 -DZ SCT005 BKN018 13/12 Q1018 YLO1 BECMG 9999 NSW FEW005 BLU  
EGOV 200950Z AUTO 27016KT 9999 SCT004/// BKN021/// 14/13 Q1018  
EGOV 200914Z 23018KT 4000 -DZ SCT009 BKN022 OVC037 14/14 Q1017 GRN BECMG 33014KT 9999 NSW FEW009 BLU
EGOV 200914Z 23018KT 4000 -DZ SCT009 BKN022 OVC037 14/14 Q1017 GRN BECMG 33014KT 9999 NSW FEW009 BLU
EGOV 200850Z 22018KT 9999 FEW003 BKN027 15/13 Q1016 BLU BECMG 33014KT BKN008 GRN
EGOV 200828Z 22018KT 9999 FEW002 BKN027 15/13 Q1016 BLU BECMG BKN008 GRN
EGOV 200828Z 22018KT 9999 FEW002 BKN027 15/13 Q1016 BLU BECMG BKN008 GRN
EGOV 200740Z 21021KT 8000 4000W BR FEW002 SCT003 BKN040 14/14 Q1016 YLO2 BECMG 9999 NSW BKN008 GRN  
EGOV 200740Z 21021KT 8000 4000W BR FEW002 SCT003 BKN040 14/14 Q1016 YLO2 BECMG 9999 NSW BKN008 GRN
EGOV 200650Z 21024KT 4500 3000W BR OVC002 14/14 Q1015 AMB TEMPO 2000 DZ AMB 
EGOV 200550Z 20026KT 5000 BR OVC002 14/14 Q1015 AMB TEMPO 2000 DZ AMB   
EGOV 200450Z AUTO 20028KT 1800 RA OVC002/// 14/14 Q1015 
EGOV 200350Z AUTO 20029KT 5000 BR OVC002/// 14/14 Q1015 
EGOV 200250Z AUTO 19029KT 7000 BR OVC004/// 14/14 Q1015 
EGOV 200150Z AUTO 20029KT 7000 BR OVC004/// 14/13 Q1015 
EGOV 200050Z AUTO 19027KT 8000 BR OVC003/// 14/14 Q1016 
EGOV 192350Z AUTO 19025KT 7000 BR BKN004/// 14/14 Q1017 
EGOV 192250Z AUTO 20023KT 7000 BR OVC002/// 14/14 Q1017 
EGOV 192150Z AUTO 19023KT 7000 BR BKN003/// 14/14 Q1018 
EGOV 192050Z AUTO 19025KT 7000 BR NCD 14/13 Q1017   
EGOV 191950Z 19025KT 9999 FEW005 15/14 Q1017 BLU
EGOV 191850Z 19024KT 9999 FEW002 SCT110 15/14 Q1017 BLU 
EGOV 191750Z 18023KT 1500 PRFG BR OVC001 15/14 Q1017 RED
EGOV 191650Z 18022KT 0900 FG OVC001 15/14 Q1018 RED 
EGOV 191627Z 18023KT 1200 VCFG BR OVC001 15/14 Q1018 RED TEMPO 0700 FG RED  
EGOV 191627Z 18023KT 1200 VCFG BR OVC001 15/14 Q1018 RED TEMPO 0700 FG RED